createdAt,value
2023-05-02T00:02:12.035Z,99681.66
2023-05-02T00:04:39.630Z,99685.06
2023-05-02T00:07:07.729Z,99689.50
2023-05-02T00:09:35.948Z,99684.72
2023-05-02T00:12:03.481Z,99685.91
2023-05-02T00:14:30.852Z,99682.03
2023-05-02T00:16:59.207Z,99675.34
2023-05-02T00:19:27.428Z,99678.81
2023-05-02T00:21:55.880Z,99687.50
2023-05-02T00:24:24.065Z,99678.59
2023-05-02T00:26:52.298Z,99675.31
2023-05-02T00:29:21.194Z,99683.56
2023-05-02T00:31:49.276Z,99683.78
2023-05-02T00:34:16.582Z,99684.84
2023-05-02T00:36:43.938Z,99675.41
2023-05-02T00:39:11.974Z,99677.09
2023-05-02T00:41:40.064Z,99683.75
2023-05-02T00:44:08.834Z,99682.59
2023-05-02T00:46:37.286Z,99680.50
2023-05-02T00:49:05.454Z,99688.94
2023-05-02T00:51:36.734Z,99684.84
2023-05-02T00:54:06.332Z,99692.00
2023-05-02T00:56:34.531Z,99677.28
2023-05-02T00:59:02.629Z,99682.25
2023-05-02T01:01:32.398Z,99688.09
2023-05-02T01:04:32.464Z,99688.63
2023-05-02T01:07:24.750Z,99683.34
2023-05-02T01:10:11.189Z,99680.41
2023-05-02T01:13:05.245Z,99686.66
2023-05-02T01:15:35.715Z,99686.97
2023-05-02T01:18:04.708Z,99688.59
2023-05-02T01:20:38.748Z,99681.88
2023-05-02T01:23:34.178Z,99682.56
2023-05-02T01:26:30.022Z,99683.81
2023-05-02T01:28:59.639Z,99675.50
2023-05-02T01:31:38.582Z,99671.34
2023-05-02T01:34:10.985Z,99670.97
2023-05-02T01:36:51.008Z,99680.56
2023-05-02T01:39:24.685Z,99676.41
2023-05-02T01:41:56.467Z,99684.72
2023-05-02T01:44:25.966Z,99668.19
2023-05-02T01:46:55.716Z,99671.69
2023-05-02T01:49:25.804Z,99672.16
2023-05-02T01:51:54.282Z,99662.50
2023-05-02T01:54:24.932Z,99664.84
2023-05-02T01:56:52.661Z,99664.25
2023-05-02T01:59:24.260Z,99671.38
2023-05-02T02:01:53.662Z,99667.03
2023-05-02T02:04:22.546Z,99670.28
2023-05-02T02:07:04.669Z,99666.03
2023-05-02T02:09:32.991Z,99658.00
2023-05-02T02:12:25.128Z,99673.66
2023-05-02T02:15:01.253Z,99668.88
2023-05-02T02:18:05.454Z,99667.75
2023-05-02T02:20:36.213Z,99674.41
2023-05-02T02:23:08.707Z,99663.09
2023-05-02T02:25:38.043Z,99666.66
2023-05-02T02:28:05.870Z,99668.91
2023-05-02T02:30:34.842Z,99664.94
2023-05-02T02:33:02.185Z,99660.22
2023-05-02T02:35:39.132Z,99654.41
2023-05-02T02:38:31.934Z,99656.09
2023-05-02T02:41:35.703Z,99653.13
2023-05-02T02:44:46.932Z,99656.06
2023-05-02T02:47:42.350Z,99653.94
2023-05-02T02:50:19.771Z,99656.31
2023-05-02T02:53:10.044Z,99649.66
2023-05-02T02:55:53.296Z,99656.38
2023-05-02T02:58:54.892Z,99660.06
2023-05-02T03:01:27.721Z,99657.56
2023-05-02T03:03:57.792Z,99656.09
2023-05-02T03:06:26.290Z,99649.84
2023-05-02T03:08:53.777Z,99652.44
2023-05-02T03:11:21.855Z,99644.66
2023-05-02T03:13:50.073Z,99645.53
2023-05-02T03:16:35.249Z,99654.78
2023-05-02T03:19:05.154Z,99643.16
2023-05-02T03:21:33.756Z,99650.16
2023-05-02T03:24:04.094Z,99653.25
2023-05-02T03:26:32.207Z,99643.56
2023-05-02T03:29:00.391Z,99648.81
2023-05-02T03:31:28.582Z,99649.75
2023-05-02T03:33:55.951Z,99654.16
2023-05-02T03:36:24.156Z,99658.81
2023-05-02T03:38:51.604Z,99654.25
2023-05-02T03:41:21.232Z,99660.13
2023-05-02T03:43:48.526Z,99665.19
2023-05-02T03:46:16.037Z,99661.97
2023-05-02T03:48:46.642Z,99667.00
2023-05-02T03:51:14.204Z,99667.88
2023-05-02T03:53:42.614Z,99670.94
2023-05-02T03:56:10.704Z,99670.94
2023-05-02T03:58:38.923Z,99672.03
2023-05-02T04:01:15.608Z,99681.00
2023-05-02T04:03:44.351Z,99677.97
2023-05-02T04:06:13.483Z,99688.00
2023-05-02T04:08:41.665Z,99690.25
2023-05-02T04:11:08.955Z,99693.03
2023-05-02T04:13:37.175Z,99695.06
2023-05-02T04:16:05.006Z,99692.50
2023-05-02T04:18:33.211Z,99697.31
2023-05-02T04:21:00.651Z,99693.25
2023-05-02T04:23:28.683Z,99697.84
2023-05-02T04:25:56.860Z,99693.19
2023-05-02T04:28:25.225Z,99703.53
2023-05-02T04:30:53.625Z,99693.09
2023-05-02T04:33:20.963Z,99711.00
2023-05-02T04:35:48.227Z,99708.22
2023-05-02T04:38:16.458Z,99716.50
2023-05-02T04:40:44.968Z,99710.69
2023-05-02T04:43:12.275Z,99710.31
2023-05-02T04:45:39.568Z,99713.44
2023-05-02T04:48:06.872Z,99714.56
2023-05-02T04:50:35.155Z,99725.78
2023-05-02T04:53:02.767Z,99721.91
2023-05-02T04:55:30.530Z,99721.75
2023-05-02T04:57:58.658Z,99734.41
2023-05-02T05:00:26.726Z,99729.31
2023-05-02T05:02:55.070Z,99730.16
2023-05-02T05:05:23.276Z,99735.53
2023-05-02T05:07:52.740Z,99741.63
2023-05-02T05:10:20.102Z,99737.59
2023-05-02T05:12:49.715Z,99739.75
2023-05-02T05:15:17.862Z,99733.09
2023-05-02T05:17:45.254Z,99741.16
2023-05-02T05:20:13.730Z,99745.69
2023-05-02T05:22:42.613Z,99745.75
2023-05-02T05:25:10.820Z,99744.00
2023-05-02T05:27:39.970Z,99752.41
2023-05-02T05:30:11.836Z,99750.91
2023-05-02T05:32:40.495Z,99746.38
2023-05-02T05:35:08.515Z,99755.34
2023-05-02T05:37:39.635Z,99756.06
2023-05-02T05:40:09.488Z,99757.13
2023-05-02T05:42:36.825Z,99757.75
2023-05-02T05:45:05.436Z,99761.88
2023-05-02T05:47:33.822Z,99763.13
2023-05-02T05:50:02.356Z,99767.63
2023-05-02T05:52:30.258Z,99770.38
2023-05-02T05:54:58.450Z,99772.03
2023-05-02T05:57:25.864Z,99774.03
2023-05-02T05:59:53.229Z,99775.47
2023-05-02T06:02:20.567Z,99779.31
2023-05-02T06:04:48.837Z,99780.81
2023-05-02T06:07:17.091Z,99773.22
2023-05-02T06:09:44.344Z,99772.06
2023-05-02T06:12:12.559Z,99782.88
2023-05-02T06:14:39.839Z,99780.19
2023-05-02T06:17:07.859Z,99771.09
2023-05-02T06:19:35.117Z,99775.56
2023-05-02T06:22:03.358Z,99771.59
2023-05-02T06:24:31.616Z,99775.06
2023-05-02T06:27:00.350Z,99778.72
2023-05-02T06:29:28.544Z,99775.47
2023-05-02T06:31:57.354Z,99771.69
2023-05-02T06:34:24.737Z,99777.47
2023-05-02T06:36:58.924Z,99777.19
2023-05-02T06:39:26.551Z,99793.13
2023-05-02T06:42:01.732Z,99803.53
2023-05-02T06:44:29.987Z,99809.88
2023-05-02T06:46:58.040Z,99807.47
2023-05-02T06:49:26.808Z,99809.50
2023-05-02T06:51:54.845Z,99809.53
2023-05-02T06:54:22.854Z,99805.63
2023-05-02T06:56:51.156Z,99798.19
2023-05-02T06:59:19.364Z,99792.91
2023-05-02T07:01:47.599Z,99799.13
2023-05-02T07:04:14.884Z,99796.44
2023-05-02T07:06:43.099Z,99801.03
2023-05-02T07:09:11.313Z,99800.34
2023-05-02T07:11:39.397Z,99791.00
2023-05-02T07:14:07.594Z,99802.25
2023-05-02T07:16:36.813Z,99796.97
2023-05-02T07:19:07.021Z,99796.13
2023-05-02T07:21:35.260Z,99795.59
2023-05-02T07:24:02.682Z,99801.50
2023-05-02T07:26:30.918Z,99805.13
2023-05-02T07:28:58.963Z,99806.28
2023-05-02T07:31:27.113Z,99796.97
2023-05-02T07:33:55.322Z,99816.91
2023-05-02T07:36:23.431Z,99819.84
2023-05-02T07:38:50.686Z,99808.84
2023-05-02T07:41:18.021Z,99805.31
2023-05-02T07:43:46.123Z,99805.44
2023-05-02T07:46:14.371Z,99806.09
2023-05-02T07:48:43.073Z,99810.91
2023-05-02T07:51:11.963Z,99814.38
2023-05-02T07:53:40.003Z,99821.25
2023-05-02T07:56:09.067Z,99818.13
2023-05-02T07:58:39.686Z,99811.41
2023-05-02T08:01:08.701Z,99814.69
2023-05-02T08:03:36.209Z,99814.09
2023-05-02T08:06:04.828Z,99811.06
2023-05-02T08:08:33.024Z,99816.22
2023-05-02T08:11:01.247Z,99813.75
2023-05-02T08:13:29.459Z,99810.19
2023-05-02T08:15:58.652Z,99809.66
2023-05-02T08:18:26.440Z,99818.38
2023-05-02T08:20:59.009Z,99811.00
2023-05-02T08:23:27.025Z,99817.09
2023-05-02T08:25:55.132Z,99816.34
2023-05-02T08:28:22.710Z,99825.78
2023-05-02T08:30:49.997Z,99825.81
2023-05-02T08:33:17.325Z,99820.44
2023-05-02T08:35:44.748Z,99820.22
2023-05-02T08:38:11.969Z,99824.91
2023-05-02T08:40:42.860Z,99820.53
2023-05-02T08:43:13.217Z,99822.69
2023-05-02T08:45:45.098Z,99823.91
2023-05-02T08:48:16.797Z,99819.63
2023-05-02T08:50:48.640Z,99815.53
2023-05-02T08:53:18.444Z,99826.09
2023-05-02T08:55:48.754Z,99816.34
2023-05-02T08:58:17.722Z,99820.88
2023-05-02T09:00:49.233Z,99811.00
2023-05-02T09:03:35.773Z,99810.69
2023-05-02T09:06:21.001Z,99810.00
2023-05-02T09:08:52.668Z,99815.22
2023-05-02T09:11:22.443Z,99819.00
2023-05-02T09:13:52.445Z,99810.56
2023-05-02T09:16:23.200Z,99820.88
2023-05-02T09:18:53.744Z,99811.66
2023-05-02T09:21:26.603Z,99808.53
2023-05-02T09:24:03.553Z,99817.75
2023-05-02T09:26:35.291Z,99810.25
2023-05-02T09:29:05.632Z,99809.22
2023-05-02T09:34:17.052Z,99812.84
2023-05-02T09:36:52.234Z,99811.97
2023-05-02T09:39:38.385Z,99811.44
2023-05-02T09:42:06.594Z,99813.31
2023-05-02T09:44:39.474Z,99807.69
2023-05-02T09:47:09.112Z,99811.59
2023-05-02T09:49:45.842Z,99815.88
2023-05-02T09:52:18.025Z,99809.50
2023-05-02T09:54:50.910Z,99806.84
2023-05-02T09:57:19.331Z,99806.44
2023-05-02T09:59:57.996Z,99797.53
2023-05-02T10:02:26.771Z,99801.41
2023-05-02T10:04:58.917Z,99792.16
2023-05-02T10:07:27.497Z,99796.44
2023-05-02T10:09:59.470Z,99790.06
2023-05-02T10:12:31.217Z,99792.09
2023-05-02T10:15:04.404Z,99786.78
2023-05-02T10:17:42.603Z,99789.31
2023-05-02T10:20:17.308Z,99784.38
2023-05-02T10:22:48.011Z,99781.81
2023-05-02T10:25:16.509Z,99778.88
2023-05-02T10:27:45.805Z,99775.38
2023-05-02T10:30:15.384Z,99771.09
2023-05-02T10:32:48.392Z,99764.84
2023-05-02T10:35:16.933Z,99754.50
2023-05-02T10:37:46.534Z,99750.56
2023-05-02T10:40:16.152Z,99744.69
2023-05-02T10:42:47.750Z,99749.31
2023-05-02T10:45:31.844Z,99752.13
2023-05-02T10:48:22.944Z,99751.59
2023-05-02T10:50:59.024Z,99738.19
2023-05-02T10:53:36.939Z,99738.72
2023-05-02T10:56:22.551Z,99745.81
2023-05-02T10:58:54.244Z,99746.09
2023-05-02T11:01:29.290Z,99745.94
2023-05-02T11:04:11.540Z,99748.16
2023-05-02T11:06:59.644Z,99743.19
2023-05-02T11:09:32.768Z,99735.53
2023-05-02T11:12:02.353Z,99743.66
2023-05-02T11:14:39.408Z,99746.69
2023-05-02T11:17:10.191Z,99730.59
2023-05-02T11:19:39.353Z,99733.63
2023-05-02T11:22:24.011Z,99729.66
2023-05-02T11:24:52.042Z,99733.47
2023-05-02T11:27:38.393Z,99737.19
2023-05-02T11:30:10.038Z,99734.31
2023-05-02T11:32:44.708Z,99732.03
2023-05-02T11:35:22.004Z,99736.81
2023-05-02T11:38:16.611Z,99728.41
2023-05-02T11:41:00.250Z,99735.59
2023-05-02T11:43:31.963Z,99738.34
2023-05-02T11:46:02.149Z,99723.22
2023-05-02T11:48:31.768Z,99730.50
2023-05-02T11:51:06.613Z,99734.94
2023-05-02T11:53:34.966Z,99733.19
2023-05-02T11:56:05.172Z,99718.13
2023-05-02T11:58:34.442Z,99729.97
2023-05-02T12:01:15.466Z,99714.94
2023-05-02T12:03:44.430Z,99716.75
2023-05-02T12:06:19.465Z,99727.56
2023-05-02T12:08:49.518Z,99722.56
2023-05-02T12:11:17.712Z,99716.53
2023-05-02T12:13:48.144Z,99715.03
2023-05-02T12:16:18.239Z,99715.94
2023-05-02T12:18:48.880Z,99719.75
2023-05-02T12:21:18.143Z,99720.22
2023-05-02T12:23:47.282Z,99711.63
2023-05-02T12:26:31.159Z,99712.59
2023-05-02T12:28:59.355Z,99708.97
2023-05-02T12:31:31.477Z,99713.16
2023-05-02T12:34:01.589Z,99714.19
2023-05-02T12:36:30.054Z,99710.69
2023-05-02T12:39:01.750Z,99713.75
2023-05-02T12:41:36.116Z,99706.09
2023-05-02T12:44:08.036Z,99716.84
2023-05-02T12:46:37.303Z,99700.41
2023-05-02T12:49:12.519Z,99708.72
2023-05-02T12:51:41.539Z,99717.59
2023-05-02T12:54:21.367Z,99710.63
2023-05-02T12:56:52.396Z,99712.13
2023-05-02T12:59:32.244Z,99708.75
2023-05-02T13:02:01.384Z,99704.84
2023-05-02T13:04:42.300Z,99695.28
2023-05-02T13:07:13.099Z,99700.84
2023-05-02T13:09:41.048Z,99693.91
2023-05-02T13:12:09.507Z,99701.38
2023-05-02T13:14:37.534Z,99684.72
2023-05-02T13:17:05.588Z,99687.28
2023-05-02T13:19:33.888Z,99692.91
2023-05-02T13:22:02.009Z,99690.25
2023-05-02T13:24:30.053Z,99693.69
2023-05-02T13:26:57.984Z,99690.44
2023-05-02T13:29:26.048Z,99690.25
2023-05-02T13:31:54.990Z,99686.13
2023-05-02T13:34:24.003Z,99687.38
2023-05-02T13:36:53.168Z,99690.59
2023-05-02T13:39:21.165Z,99681.44
2023-05-02T13:41:50.205Z,99684.88
2023-05-02T13:44:19.179Z,99680.38
2023-05-02T13:46:47.607Z,99669.72
2023-05-02T13:49:16.444Z,99669.50
2023-05-02T13:51:44.399Z,99671.50
2023-05-02T13:54:12.470Z,99676.78
2023-05-02T13:56:40.529Z,99674.22
2023-05-02T13:59:11.060Z,99676.78
2023-05-02T14:01:43.308Z,99673.09
2023-05-02T14:04:12.541Z,99674.38
2023-05-02T14:06:41.677Z,99674.34
2023-05-02T14:09:10.140Z,99678.97
2023-05-02T14:11:38.188Z,99678.53
2023-05-02T14:14:06.177Z,99671.81
2023-05-02T14:16:36.276Z,99675.13
2023-05-02T14:19:05.816Z,99677.81
2023-05-02T14:21:35.017Z,99673.41
2023-05-02T14:24:04.693Z,99672.25
2023-05-02T14:26:33.785Z,99670.03
2023-05-02T14:29:01.891Z,99671.09
2023-05-02T14:31:30.058Z,99672.13
2023-05-02T14:33:59.057Z,99668.16
2023-05-02T14:36:27.553Z,99664.22
2023-05-02T14:38:55.628Z,99666.25
2023-05-02T14:41:24.331Z,99667.34
2023-05-02T14:43:53.327Z,99664.94
2023-05-02T14:46:22.436Z,99671.22
2023-05-02T14:48:51.462Z,99654.97
2023-05-02T14:51:19.444Z,99667.34
2023-05-02T14:53:49.427Z,99675.19
2023-05-02T14:56:18.839Z,99667.31
2023-05-02T14:58:48.122Z,99662.56
2023-05-02T15:01:20.774Z,99664.44
2023-05-02T15:04:05.388Z,99667.19
2023-05-02T15:06:36.446Z,99665.94
2023-05-02T15:09:05.276Z,99663.56
2023-05-02T15:11:34.390Z,99658.59
2023-05-02T15:14:02.411Z,99665.25
2023-05-02T15:16:30.588Z,99661.16
2023-05-02T15:18:58.507Z,99653.63
2023-05-02T15:21:26.509Z,99652.41
2023-05-02T15:23:54.588Z,99660.31
2023-05-02T15:26:24.502Z,99656.69
2023-05-02T15:28:52.594Z,99662.41
2023-05-02T15:31:21.948Z,99661.00
2023-05-02T15:33:51.874Z,99661.19
2023-05-02T15:36:20.910Z,99660.50
2023-05-02T15:38:49.912Z,99657.13
2023-05-02T15:41:17.924Z,99658.47
2023-05-02T15:43:46.984Z,99657.78
2023-05-02T15:46:16.300Z,99650.78
2023-05-02T15:48:44.712Z,99654.03
2023-05-02T15:51:13.943Z,99650.28
2023-05-02T15:53:44.552Z,99658.47
2023-05-02T15:56:13.751Z,99652.34
2023-05-02T15:58:42.126Z,99651.28
2023-05-02T16:01:10.122Z,99657.94
2023-05-02T16:03:39.352Z,99648.22
2023-05-02T16:06:07.975Z,99653.00
2023-05-02T16:08:37.029Z,99657.81
2023-05-02T16:11:07.934Z,99656.78
2023-05-02T16:13:36.961Z,99654.41
2023-05-02T16:16:05.103Z,99653.00
2023-05-02T16:18:34.436Z,99645.50
2023-05-02T16:21:05.651Z,99640.38
2023-05-02T16:23:33.597Z,99649.22
2023-05-02T16:26:02.234Z,99645.31
2023-05-02T16:28:30.241Z,99654.16
2023-05-02T16:30:59.495Z,99653.66
2023-05-02T16:33:27.494Z,99648.16
2023-05-02T16:36:02.807Z,99650.38
2023-05-02T16:38:31.137Z,99652.97
2023-05-02T16:40:59.281Z,99655.00
2023-05-02T16:43:27.236Z,99642.84
2023-05-02T16:46:06.862Z,99645.03
2023-05-02T16:48:36.326Z,99644.03
2023-05-02T16:51:04.736Z,99643.13
2023-05-02T16:53:32.897Z,99643.00
2023-05-02T16:56:00.972Z,99644.63
2023-05-02T16:58:29.375Z,99633.69
2023-05-02T17:01:01.243Z,99647.50
2023-05-02T17:03:29.808Z,99638.91
2023-05-02T17:06:02.196Z,99637.59
2023-05-02T17:08:30.898Z,99641.81
2023-05-02T17:10:59.093Z,99638.06
2023-05-02T17:13:28.233Z,99643.19
2023-05-02T17:15:56.300Z,99640.94
2023-05-02T17:18:24.541Z,99641.97
2023-05-02T17:20:54.507Z,99650.28
2023-05-02T17:23:22.758Z,99657.28
2023-05-02T17:25:51.878Z,99649.44
2023-05-02T17:28:20.432Z,99648.31
2023-05-02T17:30:48.737Z,99658.63
2023-05-02T17:33:16.911Z,99657.44
2023-05-02T17:35:45.056Z,99655.75
2023-05-02T17:38:14.245Z,99663.66
2023-05-02T17:40:42.409Z,99660.25
2023-05-02T17:43:10.720Z,99660.50
2023-05-02T17:45:41.760Z,99666.28
2023-05-02T17:48:09.952Z,99664.00
2023-05-02T17:50:39.261Z,99668.06
2023-05-02T17:53:07.815Z,99663.31
2023-05-02T17:55:39.288Z,99664.00
2023-05-02T17:58:07.609Z,99666.88
2023-05-02T18:00:34.904Z,99676.19
2023-05-02T18:03:04.317Z,99659.53
2023-05-02T18:05:39.168Z,99667.81
2023-05-02T18:08:08.342Z,99671.97
2023-05-02T18:10:38.257Z,99670.41
2023-05-02T18:13:06.497Z,99675.56
2023-05-02T18:15:34.811Z,99672.00
2023-05-02T18:18:05.729Z,99681.31
2023-05-02T18:20:40.191Z,99677.75
2023-05-02T18:23:08.409Z,99685.47
2023-05-02T18:25:36.540Z,99680.91
2023-05-02T18:28:06.139Z,99687.47
2023-05-02T18:30:38.739Z,99680.06
2023-05-02T18:33:08.284Z,99688.94
2023-05-02T18:35:37.396Z,99687.81
2023-05-02T18:38:08.458Z,99674.47
2023-05-02T18:40:38.449Z,99685.50
2023-05-02T18:43:06.604Z,99696.94
2023-05-02T18:45:36.014Z,99687.06
2023-05-02T18:48:05.159Z,99693.50
2023-05-02T18:50:33.502Z,99694.38
2023-05-02T18:53:02.443Z,99698.09
2023-05-02T18:55:33.020Z,99716.53
2023-05-02T18:58:01.278Z,99705.81
2023-05-02T19:00:31.752Z,99709.78
2023-05-02T19:03:00.099Z,99710.91
2023-05-02T19:05:29.306Z,99715.50
2023-05-02T19:07:58.462Z,99729.81
2023-05-02T19:10:26.738Z,99732.97
2023-05-02T19:12:56.362Z,99734.38
2023-05-02T19:15:27.611Z,99736.81
2023-05-02T19:18:00.245Z,99740.72
2023-05-02T19:20:30.066Z,99734.41
2023-05-02T19:23:18.492Z,99737.13
2023-05-02T19:25:48.483Z,99743.28
2023-05-02T19:28:17.546Z,99748.72
2023-05-02T19:30:45.326Z,99739.72
2023-05-02T19:33:13.632Z,99748.44
2023-05-02T19:35:41.857Z,99748.16
2023-05-02T19:38:10.096Z,99759.28
2023-05-02T19:40:38.200Z,99752.94
2023-05-02T19:43:07.138Z,99758.47
2023-05-02T19:45:35.397Z,99758.97
2023-05-02T19:48:03.767Z,99758.53
2023-05-02T19:50:33.466Z,99768.50
2023-05-02T19:53:02.366Z,99766.97
2023-05-02T19:55:31.301Z,99770.78
2023-05-02T19:58:00.855Z,99770.53
2023-05-02T20:00:29.966Z,99773.94
2023-05-02T20:02:58.192Z,99773.09
2023-05-02T20:05:26.387Z,99784.56
2023-05-02T20:07:54.602Z,99780.59
2023-05-02T20:10:23.351Z,99778.63
2023-05-02T20:12:51.567Z,99780.84
2023-05-02T20:15:19.741Z,99776.69
2023-05-02T20:17:48.236Z,99783.06
2023-05-02T20:20:15.910Z,99784.13
2023-05-02T20:22:44.688Z,99780.69
2023-05-02T20:25:12.950Z,99781.28
2023-05-02T20:27:41.126Z,99786.28
2023-05-02T20:30:10.335Z,99780.09
2023-05-02T20:32:38.942Z,99786.66
2023-05-02T20:35:07.340Z,99777.22
2023-05-02T20:37:35.479Z,99787.78
2023-05-02T20:40:05.803Z,99784.03
2023-05-02T20:42:34.030Z,99796.75
2023-05-02T20:45:05.592Z,99792.31
2023-05-02T20:47:34.265Z,99793.94
2023-05-02T20:50:02.729Z,99782.63
2023-05-02T20:52:30.172Z,99789.16
2023-05-02T20:54:57.464Z,99782.53
2023-05-02T20:57:25.645Z,99786.53
2023-05-02T20:59:53.015Z,99788.81
2023-05-02T21:02:20.287Z,99790.50
2023-05-02T21:04:47.513Z,99795.66
2023-05-02T21:07:15.811Z,99796.94
2023-05-02T21:09:43.967Z,99793.63
2023-05-02T21:12:11.962Z,99789.78
2023-05-02T21:14:40.071Z,99789.97
2023-05-02T21:17:08.225Z,99786.19
2023-05-02T21:19:37.671Z,99795.78
2023-05-02T21:22:05.800Z,99801.38
2023-05-02T21:24:33.951Z,99794.94
2023-05-02T21:27:02.293Z,99788.50
2023-05-02T21:29:30.490Z,99796.19
2023-05-02T21:31:58.776Z,99794.34
2023-05-02T21:34:26.964Z,99791.88
2023-05-02T21:36:55.158Z,99789.78
2023-05-02T21:39:23.402Z,99794.28
2023-05-02T21:41:51.595Z,99800.84
2023-05-02T21:44:19.953Z,99795.78
2023-05-02T21:46:48.120Z,99801.28
2023-05-02T21:49:16.291Z,99804.00
2023-05-02T21:51:44.498Z,99804.19
2023-05-02T21:54:12.707Z,99811.13
2023-05-02T21:56:39.965Z,99820.59
2023-05-02T21:59:08.088Z,99813.81
2023-05-02T22:01:36.231Z,99814.78
2023-05-02T22:04:04.565Z,99819.44
2023-05-02T22:06:33.730Z,99822.19
2023-05-02T22:09:02.473Z,99829.34
2023-05-02T22:11:31.676Z,99834.03
2023-05-02T22:13:58.986Z,99838.47
2023-05-02T22:16:27.242Z,99845.63
2023-05-02T22:18:54.748Z,99844.78
2023-05-02T22:21:22.952Z,99849.66
2023-05-02T22:23:51.289Z,99850.44
2023-05-02T22:26:18.556Z,99856.38
2023-05-02T22:28:45.977Z,99860.56
2023-05-02T22:31:14.349Z,99864.91
2023-05-02T22:33:43.380Z,99876.97
2023-05-02T22:36:12.189Z,99876.38
2023-05-02T22:38:40.398Z,99885.88
2023-05-02T22:41:09.298Z,99883.25
2023-05-02T22:43:37.420Z,99876.63
2023-05-02T22:46:05.592Z,99879.13
2023-05-02T22:48:32.935Z,99882.84
2023-05-02T22:51:00.227Z,99885.22
2023-05-02T22:53:28.574Z,99886.59
2023-05-02T22:55:56.766Z,99888.09
2023-05-02T22:58:24.926Z,99890.31
2023-05-02T23:00:53.140Z,99895.75
2023-05-02T23:03:22.362Z,99898.34
2023-05-02T23:05:49.764Z,99902.66
2023-05-02T23:08:17.902Z,99893.31
2023-05-02T23:10:46.723Z,99898.25
2023-05-02T23:13:14.862Z,99898.72
2023-05-02T23:15:42.363Z,99890.28
2023-05-02T23:18:10.691Z,99894.31
2023-05-02T23:20:38.845Z,99902.19
2023-05-02T23:23:07.115Z,99898.00
2023-05-02T23:25:36.935Z,99894.81
2023-05-02T23:28:05.695Z,99893.69
2023-05-02T23:30:33.834Z,99885.81
2023-05-02T23:33:02.100Z,99884.63
2023-05-02T23:35:30.849Z,99887.56
2023-05-02T23:38:07.265Z,99887.06
2023-05-02T23:40:35.498Z,99876.63
2023-05-02T23:43:03.833Z,99874.91
2023-05-02T23:45:31.911Z,99869.72
2023-05-02T23:47:59.918Z,99871.69
2023-05-02T23:50:28.139Z,99872.22
2023-05-02T23:52:56.344Z,99870.97
2023-05-02T23:55:24.722Z,99876.63
2023-05-02T23:57:52.794Z,99874.06
